Flight Track Log - Related Links

Times and Time Zones

All times are in EDT time to prevent confusion due to time zone crossing. See the CLX861 flight status page for this flight to view local times or setup timezone preferences in your user account.

Time Position Orientation Groundspeed Altitude Reporting Facility
EDT Latitude Longitude Course Direction KTS MPH feet Rate Location/Type
Sun 03:31:42 AM 25.7880 -80.2710 90° East 156 180 800  Level FlightAware ADS-B
Sun 03:32:12 AM 25.7930 -80.2470 77° East 160 184 1,700 1,418 Climbing FlightAware ADS-B
Sun 03:32:37 AM 25.7980 -80.2240 76° East 192 221 2,100 900 Climbing FlightAware ADS-B
Sun 03:32:52 AM 25.8010 -80.2100 77° East 212 244 2,300 1,200 Climbing FlightAware ADS-B
Sun 03:33:17 AM 25.8070 -80.1810 77° East 242 278 2,900 1,964 Climbing FlightAware ADS-B
Sun 03:33:47 AM 25.8220 -80.1440 66° East 262 302 4,100 2,800 Climbing FlightAware ADS-B
Sun 03:34:17 AM 25.8400 -80.1080 61° Northeast 269 310 5,700 2,945 Climbing FlightAware ADS-B
Sun 03:34:42 AM 25.8600 -80.0830 48° Northeast 277 319 6,800 2,850 Climbing FlightAware ADS-B
Sun 03:34:57 AM 25.8780 -80.0790 11° North 273 314 7,600 2,700 Climbing FlightAware ADS-B
Sun 03:35:22 AM 25.9060 -80.0910 339° North 274 315 8,600 2,618 Climbing FlightAware ADS-B
Sun 03:35:52 AM 25.9290 -80.1270 305° West 290 334 10,000 2,080 Climbing FlightAware ADS-B
Sun 03:36:37 AM 25.9640 -80.1860 303° West 328 377 11,200 1,482 Climbing FlightAware ADS-B
Sun 03:37:17 AM 26.0000 -80.2470 303° West 368 423 12,100 1,624 Climbing FlightAware ADS-B
Sun 03:38:02 AM 26.0450 -80.3210 304° West 393 452 13,500 2,118 Climbing FlightAware ADS-B
Sun 03:38:42 AM 26.0910 -80.3870 308° West 407 468 15,100 2,400 Climbing FlightAware ADS-B
Sun 03:39:22 AM 26.1380 -80.4500 310° West 412 474 16,700 2,325 Climbing FlightAware ADS-B
Sun 03:40:02 AM 26.1900 -80.5200 310° West 416 479 18,200 2,118 Climbing FlightAware ADS-B
Sun 03:40:47 AM 26.2450 -80.5950 309° West 431 496 19,700 1,933 Climbing FlightAware ADS-B
Sun 03:41:32 AM 26.3020 -80.6720 310° West 438 504 21,100 1,906 Climbing FlightAware ADS-B
Sun 03:42:12 AM 26.3460 -80.7500 302° West 434 499 22,400 1,950 Climbing FlightAware ADS-B
Sun 03:42:52 AM 26.3750 -80.8340 291° West 436 502 23,700 1,800 Climbing FlightAware ADS-B
Sun 03:43:32 AM 26.4040 -80.9200 291° West 440 506 24,800 1,624 Climbing FlightAware ADS-B
Sun 03:44:17 AM 26.4360 -81.0170 290° West 448 516 26,000 1,467 Climbing FlightAware ADS-B
Sun 03:45:02 AM 26.4690 -81.1180 290° West 457 526 27,000 1,341 Climbing FlightAware ADS-B
Sun 03:45:42 AM 26.4980 -81.2060 290° West 466 536 27,900 1,725 Climbing FlightAware ADS-B
Sun 03:46:22 AM 26.5270 -81.2960 290° West 457 526 29,300 2,188 Climbing FlightAware ADS-B
Sun 03:47:07 AM 26.5590 -81.3930 290° West 449 517 31,000 1,906 Climbing FlightAware ADS-B
Sun 03:47:47 AM 26.5880 -81.4830 290° West 454 522 32,000 1,624 Climbing FlightAware ADS-B
Sun 03:48:32 AM 26.6210 -81.5840 290° West 458 527 33,300 1,765 Climbing FlightAware ADS-B
Sun 03:49:12 AM 26.6510 -81.6710 291° West 454 522 34,500 1,875 Climbing FlightAware ADS-B
Sun 03:49:52 AM 26.6800 -81.7570 291° West 443 510 35,800 1,059 Climbing FlightAware ADS-B
Sun 03:50:37 AM 26.7130 -81.8530 291° West 426 490 36,000 141 Climbing FlightAware ADS-B
Sun 03:51:17 AM 26.7400 -81.9340 290° West 423 487 36,000  Level FlightAware ADS-B
Sun 03:52:02 AM 26.7700 -82.0260 290° West 425 489 36,000  Level FlightAware ADS-B
Sun 03:52:42 AM 26.7950 -82.1000 291° West 425 489 36,000  Level FlightAware ADS-B
Sun 03:54:12 AM 26.8580 -82.2900 290° West 427 491 36,000  Level FlightAware ADS-B
Sun 03:55:22 AM 26.9070 -82.4380 290° West 425 489 36,000  Level FlightAware ADS-B
Sun 03:56:12 AM 26.9420 -82.5420 291° West 425 489 36,000  Level FlightAware ADS-B
Sun 03:56:52 AM 26.9690 -82.6260 290° West 426 490 36,000  Level FlightAware ADS-B
Sun 03:57:32 AM 26.9950 -82.7050 290° West 427 491 36,000  Level FlightAware ADS-B
Sun 03:58:17 AM 27.0250 -82.7980 290° West 427 491 36,000  Level FlightAware ADS-B
Sun 03:58:57 AM 27.0520 -82.8790 291° West 426 490 36,000  Level FlightAware ADS-B
Sun 03:59:32 AM 27.0760 -82.9550 290° West 426 490 36,000  Level FlightAware ADS-B
Sun 04:00:22 AM 27.1100 -83.0590 290° West 425 489 36,000  Level FlightAware ADS-B
Sun 04:01:02 AM 27.1380 -83.1460 290° West 424 488 36,000  Level FlightAware ADS-B
Sun 04:01:47 AM 27.1670 -83.2350 290° West 421 484 36,000  Level FlightAware ADS-B
Sun 04:02:32 AM 27.1980 -83.3310 290° West 419 482 36,000  Level FlightAware ADS-B
Sun 04:03:12 AM 27.2230 -83.4070 290° West 418 481 36,000  Level FlightAware ADS-B
Sun 04:03:52 AM 27.2510 -83.4940 290° West 418 481 36,000  Level FlightAware ADS-B
Sun 04:04:42 AM 27.2820 -83.5920 290° West 420 483 36,000  Level FlightAware ADS-B
Sun 04:05:32 AM 27.3140 -83.6910 290° West 419 482 36,000  Level FlightAware ADS-B
Sun 04:06:02 AM 27.3340 -83.7540 290° West 420 483 36,000  Level FlightAware ADS-B
Sun 04:06:57 AM 27.3650 -83.8580 289° West 420 483 36,000  Level FlightAware ADS-B
Sun 04:07:52 AM 27.4050 -83.9780 291° West 421 484 36,000  Level FlightAware ADS-B
Sun 04:08:27 AM 27.4290 -84.0550 289° West 419 482 36,000  Level FlightAware ADS-B
Sun 04:09:17 AM 27.4640 -84.1660 290° West 420 483 36,000  Level FlightAware ADS-B
Sun 04:09:57 AM 27.4900 -84.2480 290° West 420 483 36,000  Level FlightAware ADS-B
Sun 04:10:37 AM 27.5150 -84.3270 290° West 418 481 36,000  Level FlightAware ADS-B
Sun 04:11:22 AM 27.5440 -84.4210 289° West 416 479 36,000  Level FlightAware ADS-B
Sun 04:12:02 AM 27.5700 -84.5020 290° West 415 478 36,000  Level FlightAware ADS-B
Sun 04:12:42 AM 27.5950 -84.5830 289° West 414 476 36,000  Level FlightAware ADS-B
Sun 04:13:27 AM 27.6230 -84.6730 289° West 413 475 36,000  Level FlightAware ADS-B
Sun 04:14:22 AM 27.6580 -84.7880 289° West 411 473 36,000  Level FlightAware ADS-B
Sun 04:14:57 AM 27.6780 -84.8520 289° West 411 473 36,000  Level FlightAware ADS-B
Sun 04:15:42 AM 27.7080 -84.9480 289° West 410 472 36,000  Level FlightAware ADS-B
Sun 04:16:27 AM 27.7340 -85.0320 289° West 411 473 36,000  Level FlightAware ADS-B
Sun 04:17:07 AM 27.7590 -85.1150 289° West 411 473 36,000  Level FlightAware ADS-B
Sun 04:17:52 AM 27.7880 -85.2080 289° West 410 472 36,000  Level FlightAware ADS-B
Sun 04:18:27 AM 27.8080 -85.2730 289° West 410 472 36,000  Level FlightAware ADS-B
Sun 04:19:12 AM 27.8320 -85.3580 288° West 410 472 36,000  Level FlightAware ADS-B
Sun 04:19:57 AM 27.8640 -85.4570 290° West 405 466 36,000  Level FlightAware ADS-B
Sun 04:20:42 AM 27.8910 -85.5490 288° West 403 464 36,000  Level FlightAware ADS-B
Sun 04:21:22 AM 27.9150 -85.6260 289° West 402 463 36,000  Level FlightAware ADS-B
Sun 04:22:17 AM 27.9440 -85.7280 288° West 402 463 36,000  Level FlightAware ADS-B
Sun 04:22:57 AM 27.9640 -85.7960 288° West 402 463 36,000  Level FlightAware ADS-B
Sun 04:23:37 AM 27.9830 -85.8640 288° West 402 463 36,000  Level FlightAware ADS-B
Sun 04:24:17 AM 28.0030 -85.9320 288° West 402 463 36,000  Level FlightAware ADS-B
Sun 04:25:07 AM 28.0270 -86.0170 288° West 402 463 36,000  Level FlightAware ADS-B
Sun 04:25:47 AM 28.0470 -86.0850 288° West 402 463 36,000  Level FlightAware ADS-B
Sun 04:26:27 AM 28.0660 -86.1530 288° West 402 463 36,000  Level FlightAware ADS-B
Sun 04:27:07 AM 28.0860 -86.2210 288° West 402 463 36,000  Level FlightAware ADS-B
Sun 04:27:47 AM 28.1060 -86.2900 288° West 402 463 36,000  Level FlightAware ADS-B
Sun 04:28:37 AM 28.1300 -86.3750 288° West 402 463 36,000  Level FlightAware ADS-B
Sun 04:29:17 AM 28.1490 -86.4430 288° West 402 463 36,000  Level FlightAware ADS-B
Sun 04:29:57 AM 28.1690 -86.5110 288° West 402 463 36,000  Level FlightAware ADS-B
Sun 04:30:37 AM 28.1890 -86.5790 288° West 402 463 36,000  Level FlightAware ADS-B
Sun 04:31:17 AM 28.2080 -86.6480 287° West 402 463 36,000  Level FlightAware ADS-B
Sun 04:31:32 AM 28.2753 -86.8306 287° West 397 457 36,000 160 Level Jacksonville Center
Sun 04:32:32 AM 28.3053 -86.9425 287° West 389 448 36,200 750 Climbing Jacksonville Center
Sun 04:33:32 AM 28.3431 -87.0667 289° West 389 448 37,500 850 Climbing Jacksonville Center
Sun 04:34:32 AM 28.3747 -87.1811 287° West 389 448 37,900 200 Climbing Jacksonville Center
Sun 04:35:32 AM 28.4061 -87.2981 287° West 398 458 37,900 38 Level Jacksonville Center
Sun 04:37:11 AM 28.4628 -87.4900 289° West 396 456 38,000 38 Climbing Houston Center
Sun 04:38:11 AM 28.4967 -87.6086 288° West 397 457 38,000  Level Houston Center
Sun 04:39:11 AM 28.5308 -87.7281 288° West 399 459 38,000  Level Houston Center
Sun 04:40:11 AM 28.5633 -87.8467 287° West 396 456 38,000  Level Houston Center
Sun 04:41:11 AM 28.5964 -87.9672 287° West 400 460 38,000  Level Houston Center
Sun 04:42:12 AM 28.6292 -88.0839 288° West 396 456 38,000  Level Houston Center
Sun 04:47:22 AM 28.7690 -88.7180 288° West 394 453 38,000  Level FlightAware ADS-B
Sun 04:48:02 AM 28.7840 -88.7900 283° West 394 453 38,000  Level FlightAware ADS-B
Sun 04:48:42 AM 28.7970 -88.8590 282° West 394 453 38,000  Level FlightAware ADS-B
Sun 04:49:22 AM 28.8110 -88.9280 283° West 394 453 38,000  Level FlightAware ADS-B
Sun 04:50:02 AM 28.8250 -88.9970 283° West 394 453 38,000  Level FlightAware ADS-B
Sun 04:50:52 AM 28.8430 -89.0830 283° West 394 453 38,000  Level FlightAware ADS-B
Sun 04:51:32 AM 28.8570 -89.1520 283° West 394 453 38,000  Level FlightAware ADS-B
Sun 04:52:12 AM 28.8710 -89.2210 283° West 394 453 38,000  Level FlightAware ADS-B
Sun 04:52:52 AM 28.8850 -89.2900 283° West 394 453 38,000  Level FlightAware ADS-B
Sun 04:53:32 AM 28.8980 -89.3590 282° West 394 453 38,000  Level FlightAware ADS-B
Sun 04:54:12 AM 28.9120 -89.4280 283° West 394 453 38,000  Level FlightAware ADS-B
Sun 04:55:02 AM 28.9300 -89.5140 283° West 394 453 38,000  Level FlightAware ADS-B
Sun 04:55:42 AM 28.9440 -89.5830 283° West 394 453 38,000  Level FlightAware ADS-B
Sun 04:56:22 AM 28.9580 -89.6520 283° West 394 453 38,000  Level FlightAware ADS-B
Sun 04:57:02 AM 28.9720 -89.7210 283° West 394 453 38,000 -54 Level FlightAware ADS-B
Sun 04:58:13 AM 29.0392 -90.0117 283° West 383 441 37,900 -45 Descending Houston Center
Sun 04:59:14 AM 29.0636 -90.1325 283° West 388 447 37,900  Level Houston Center
Sun 05:00:14 AM 29.0883 -90.2506 284° West 385 443 37,900 50 Level Houston Center
Sun 05:01:14 AM 29.1111 -90.3681 283° West 382 440 38,000 15 Climbing Houston Center
Sun 05:06:50 AM 29.2489 -91.0427 283° West 384 442 38,000  Level FlightAware ADS-B
Sun 05:07:21 AM 29.2610 -91.1035 283° West 384 442 38,000  Level FlightAware ADS-B
Sun 05:07:52 AM 29.2731 -91.1643 283° West 384 442 38,000  Level FlightAware ADS-B
Sun 05:08:22 AM 29.2851 -91.2241 283° West 384 442 38,000  Level FlightAware ADS-B
Sun 05:08:53 AM 29.2975 -91.2864 283° West 383 441 38,000  Level FlightAware ADS-B
Sun 05:09:30 AM 29.3117 -91.3581 283° West 382 440 38,000  Level FlightAware ADS-B
Sun 05:10:14 AM 29.3289 -91.4447 283° West 380 437 38,000  Level FlightAware ADS-B
Sun 05:10:44 AM 29.3405 -91.5036 283° West 378 435 38,000  Level FlightAware ADS-B
Sun 05:11:15 AM 29.3522 -91.5629 283° West 378 435 38,000  Level FlightAware ADS-B
Sun 05:11:45 AM 29.3637 -91.6222 283° West 376 433 38,000  Level FlightAware ADS-B
Sun 05:12:15 AM 29.3751 -91.6809 283° West 375 432 38,000  Level FlightAware ADS-B
Sun 05:13:03 AM 29.3931 -91.7723 283° West 375 432 38,000  Level FlightAware ADS-B
Sun 05:13:33 AM 29.4045 -91.8311 283° West 376 433 38,000  Level FlightAware ADS-B
Sun 05:14:14 AM 29.4200 -91.9113 283° West 376 433 38,000  Level FlightAware ADS-B
Sun 05:14:45 AM 29.4314 -91.9706 282° West 376 433 38,000  Level FlightAware ADS-B
Sun 05:15:16 AM 29.4429 -92.0308 282° West 375 432 38,000  Level FlightAware ADS-B
Sun 05:15:47 AM 29.4545 -92.0906 283° West 374 430 38,000  Level FlightAware ADS-B
Sun 05:16:17 AM 29.4658 -92.1494 282° West 373 429 38,000  Level FlightAware ADS-B
Sun 05:16:47 AM 29.4770 -92.2077 282° West 372 428 38,000  Level FlightAware ADS-B
Sun 05:17:18 AM 29.4880 -92.2659 282° West 372 428 38,000  Level FlightAware ADS-B
Sun 05:17:48 AM 29.4991 -92.3241 282° West 372 428 38,000  Level FlightAware ADS-B
Sun 05:18:18 AM 29.5102 -92.3828 282° West 372 428 38,000  Level FlightAware ADS-B
Sun 05:18:49 AM 29.5213 -92.4412 282° West 372 428 38,000  Level FlightAware ADS-B
Sun 05:19:19 AM 29.5323 -92.4994 282° West 370 426 38,000  Level FlightAware ADS-B
Sun 05:19:49 AM 29.5433 -92.5580 282° West 369 425 38,000  Level FlightAware ADS-B
Sun 05:20:20 AM 29.5541 -92.6158 282° West 367 422 38,000  Level FlightAware ADS-B
Sun 05:20:51 AM 29.5651 -92.6740 282° West 365 420 38,000  Level FlightAware ADS-B
Sun 05:21:21 AM 29.5757 -92.7313 282° West 362 417 38,000  Level FlightAware ADS-B
Sun 05:21:52 AM 29.5866 -92.7891 282° West 360 414 38,000  Level FlightAware ADS-B
Sun 05:22:22 AM 29.5971 -92.8455 282° West 358 412 38,000  Level FlightAware ADS-B
Sun 05:22:52 AM 29.6075 -92.9011 282° West 358 412 38,000  Level FlightAware ADS-B
Sun 05:23:22 AM 29.6177 -92.9569 282° West 358 412 38,000  Level FlightAware ADS-B
Sun 05:23:52 AM 29.6280 -93.0128 282° West 357 411 38,000  Level FlightAware ADS-B
Sun 05:24:23 AM 29.6385 -93.0697 282° West 357 411 38,000  Level FlightAware ADS-B
Sun 05:24:53 AM 29.6487 -93.1251 282° West 356 410 38,000  Level FlightAware ADS-B
Sun 05:25:24 AM 29.6592 -93.1829 282° West 355 409 38,000  Level FlightAware ADS-B
Sun 05:25:55 AM 29.6695 -93.2396 282° West 356 410 38,000 -290 Level FlightAware ADS-B
Sun 05:26:26 AM 29.6796 -93.2948 282° West 342 394 37,700 -1,377 Descending FlightAware ADS-B
Sun 05:26:56 AM 29.6895 -93.3486 282° West 340 391 36,600 -2,200 Descending FlightAware ADS-B
Sun 05:27:26 AM 29.6991 -93.4016 282° West 337 388 35,500 -2,300 Descending FlightAware ADS-B
Sun 05:27:56 AM 29.7087 -93.4546 282° West 338 389 34,300 -2,459 Descending FlightAware ADS-B
Sun 05:28:27 AM 29.7185 -93.5082 282° West 341 392 33,000 -2,557 Descending FlightAware ADS-B
Sun 05:28:57 AM 29.7280 -93.5620 282° West 344 396 31,700 -2,600 Descending FlightAware ADS-B
Sun 05:29:27 AM 29.7378 -93.6169 282° West 346 398 30,400 -2,754 Descending FlightAware ADS-B
Sun 05:29:58 AM 29.7477 -93.6724 282° West 354 407 28,900 -2,656 Descending FlightAware ADS-B
Sun 05:30:28 AM 29.7577 -93.7279 282° West 352 405 27,700 -2,441 Descending FlightAware ADS-B
Sun 05:30:57 AM 29.7672 -93.7809 282° West 351 404 26,500 -2,291 Descending FlightAware ADS-B
Sun 05:31:23 AM 29.7755 -93.8286 281° West 345 397 25,600 -2,000 Descending FlightAware ADS-B
Sun 05:31:54 AM 29.7852 -93.8822 282° West 337 388 24,600 -1,800 Descending FlightAware ADS-B
Sun 05:32:23 AM 29.7943 -93.9336 282° West 327 376 23,800 -1,500 Descending FlightAware ADS-B
Sun 05:32:54 AM 29.8033 -93.9845 282° West 317 365 23,100 -1,475 Descending FlightAware ADS-B
Sun 05:33:24 AM 29.8121 -94.0340 282° West 309 356 22,300 -1,500 Descending FlightAware ADS-B
Sun 05:33:50 AM 29.8193 -94.0759 281° West 302 348 21,700 -1,500 Descending FlightAware ADS-B
Sun 05:34:20 AM 29.8273 -94.1216 281° West 297 342 20,900 -1,500 Descending FlightAware ADS-B
Sun 05:34:50 AM 29.8354 -94.1678 281° West 290 334 20,200 -1,627 Descending FlightAware ADS-B
Sun 05:35:19 AM 29.8432 -94.2117 282° West 293 337 19,300 -1,882 Descending FlightAware ADS-B
Sun 05:35:41 AM 29.8490 -94.2459 281° West 295 339 18,600 -1,846 Descending FlightAware ADS-B
Sun 05:36:11 AM 29.8570 -94.2919 281° West 295 339 17,700 -1,672 Descending FlightAware ADS-B
Sun 05:36:42 AM 29.8651 -94.3385 281° West 295 339 16,900 -1,672 Descending FlightAware ADS-B
Sun 05:37:12 AM 29.8732 -94.3848 281° West 295 339 16,000 -1,789 Descending FlightAware ADS-B
Sun 05:37:39 AM 29.8804 -94.4268 281° West 294 338 15,200 -1,667 Descending FlightAware ADS-B
Sun 05:38:06 AM 29.8876 -94.4681 281° West 293 337 14,500 -1,579 Descending FlightAware ADS-B
Sun 05:38:36 AM 29.8957 -94.5144 281° West 291 335 13,700 -1,475 Descending FlightAware ADS-B
Sun 05:39:07 AM 29.9036 -94.5606 281° West 288 331 13,000 -1,448 Descending FlightAware ADS-B
Sun 05:39:34 AM 29.9104 -94.6006 281° West 285 328 12,300 -1,579 Descending FlightAware ADS-B
Sun 05:40:04 AM 29.9181 -94.6454 281° West 283 326 11,500 -1,607 Descending FlightAware ADS-B
Sun 05:40:30 AM 29.9247 -94.6849 281° West 283 326 10,800 -1,368 Descending FlightAware ADS-B
Sun 05:41:01 AM 29.9323 -94.7293 281° West 273 314 10,200 -1,043 Descending FlightAware ADS-B
Sun 05:41:16 AM 29.9360 -94.7507 281° West 270 311 10,000 -1,161 Descending FlightAware ADS-B
Sun 05:41:32 AM 29.9398 -94.7726 281° West 268 308 9,600 -1,355 Descending FlightAware ADS-B
Sun 05:41:47 AM 29.9433 -94.7936 281° West 268 308 9,300 -1,400 Descending FlightAware ADS-B
Sun 05:42:02 AM 29.9469 -94.8147 281° West 268 308 8,900 -1,440 Descending FlightAware ADS-B
Sun 05:42:12 AM 29.9494 -94.8295 281° West 268 308 8,700 -1,440 Descending FlightAware ADS-B
Sun 05:42:27 AM 29.9530 -94.8510 281° West 268 308 8,300 -1,448 Descending FlightAware ADS-B
Sun 05:42:41 AM 29.9563 -94.8701 281° West 268 308 8,000 -1,000 Descending FlightAware ADS-B
Sun 05:42:57 AM 29.9599 -94.8916 281° West 262 302 7,800 -774 Descending FlightAware ADS-B
Sun 05:43:12 AM 29.9634 -94.9120 281° West 254 292 7,600 -800 Descending FlightAware ADS-B
Sun 05:43:27 AM 29.9667 -94.9318 281° West 242 278 7,400 -1,071 Descending FlightAware ADS-B
Sun 05:43:40 AM 29.9694 -94.9479 281° West 237 273 7,100 -1,304 Descending FlightAware ADS-B
Sun 05:43:50 AM 29.9714 -94.9599 281° West 235 270 6,900 -1,680 Descending FlightAware ADS-B
Sun 05:44:05 AM 29.9745 -94.9787 281° West 233 268 6,400 -1,800 Descending FlightAware ADS-B
Sun 05:44:10 AM 29.9755 -94.9847 281° West 233 268 6,300 -1,500 Descending FlightAware ADS-B
Sun 05:44:13 AM 29.9760 -94.9889 278° West 233 268 6,200 -1,800 Descending FlightAware ADS-B
Sun 05:44:20 AM 29.9765 -94.9970 274° West 232 267 6,000 -1,500 Descending FlightAware ADS-B
Sun 05:44:29 AM 29.9770 -95.0082 273° West 228 262 5,800 -1,200 Descending FlightAware ADS-B
Sun 05:44:40 AM 29.9778 -95.0213 274° West 222 255 5,600 -1,143 Descending FlightAware ADS-B
Sun 05:44:50 AM 29.9780 -95.0323 271° West 216 249 5,400 -1,200 Descending FlightAware ADS-B
Sun 05:45:05 AM 29.9778 -95.0496 269° West 211 243 5,100 -1,154 Descending FlightAware ADS-B
Sun 05:45:16 AM 29.9776 -95.0615 269° West 205 236 4,900 -1,154 Descending FlightAware ADS-B
Sun 05:45:31 AM 29.9777 -95.0782 270° West 195 224 4,600 -1,200 Descending FlightAware ADS-B
Sun 05:45:46 AM 29.9777 -95.0933 270° West 184 212 4,300 -1,556 Descending FlightAware ADS-B
Sun 05:45:58 AM 29.9777 -95.1049 270° West 179 206 3,900 -1,929 Descending FlightAware ADS-B
Sun 05:46:14 AM 29.9776 -95.1195 270° West 181 208 3,400 -1,935 Descending FlightAware ADS-B
Sun 05:46:29 AM 29.9776 -95.1343 270° West 183 211 2,900 -1,655 Descending FlightAware ADS-B
Sun 05:46:43 AM 29.9776 -95.1484 270° West 182 209 2,600 -1,200 Descending FlightAware ADS-B
Sun 05:46:54 AM 29.9777 -95.1591 271° West 180 207 2,400 -857 Descending FlightAware ADS-B
Sun 05:47:04 AM 29.9778 -95.1684 271° West 181 208 2,300 -857 Descending FlightAware ADS-B
Sun 05:47:15 AM 29.9778 -95.1792 270° West 184 212 2,100 -1,091 Descending FlightAware ADS-B
Sun 05:47:26 AM 29.9777 -95.1902 269° West 185 213 1,900 -938 Descending FlightAware ADS-B
Sun 05:47:47 AM 29.9777 -95.2101 270° West 182 209 1,600 -1,024 Descending FlightAware ADS-B
Sun 05:48:07 AM 29.9778 -95.2290 270° West 168 193 1,200 -1,000 Descending FlightAware ADS-B
Sun 05:48:17 AM 29.9778 -95.2379 270° West 163 188 1,100 -706 Descending FlightAware ADS-B
Sun 05:48:24 AM 29.9777 -95.2437 269° West 158 182 1,000 -818 Descending FlightAware ADS-B
Sun 05:48:39 AM 29.9777 -95.2566 270° West 157 181 800 -818 Descending FlightAware ADS-B
Sun 05:48:46 AM 29.9777 -95.2625 270° West 157 181 700 -800 Descending FlightAware ADS-B
Sun 05:48:54 AM 29.9776 -95.2691 269° West 156 180 600 -1,000 Descending FlightAware ADS-B
Sun 05:49:04 AM 29.9775 -95.2768 269° West 156 180 400 -960 Descending FlightAware ADS-B
Sun 05:49:19 AM 29.9776 -95.2898 271° West 155 178 200 -667 Descending FlightAware ADS-B
Sun 05:49:31 AM 29.9776 -95.2991 270° West 146 168 100 -500 Descending FlightAware ADS-B

Login

Don't have an account? Register now (free) for customized features, flight alerts, and more!